Terminal Aerodrome Forecast
Issued by NWS

Current Version | Previous Version | Graphics & Text | Print | Product List | Glossary On
Versions: 1 2 3 4 5 6 7 8 9 10 11 12 13 14 15 16 17 18 19 20 21 22 23 24 25
000
FTUS41 KILN 161700
TAFLUK
TAF
KLUK 161737Z 1618/1718 18008KT P6SM VCSH BKN040
      TEMPO 1618/1620 OVC025
     FM162100 19006KT P6SM VCTS BKN040CB
      TEMPO 1621/1701 5SM -SHRA OVC025
     FM170100 19004KT 4SM BR VCSH OVC015
     FM170500 23004KT 2SM BR OVC009
     FM171300 31004KT P6SM SCT025
     FM171600 34006KT P6SM SKC=

USA.gov is the U.S. government's official web portal to all federal, state and local government web resources and services.